All Spectrum Aviation - Van Nuys Airport - KVNY

HOME

Condor Squadron KVNY Webcam

Visit our Electronics Store

Condor Squadron Webcam - Van Nuys Airport - KVNY
Picture taken: Wed, 05 Aug 2020 10:16:37 -0700
YouTube Channel!    Latest Timelapse Movie    Full Size Image    Regular Size Image    

2020/08/05 16:51 KVNY 051651Z 20004KT 8SM OVC015 21/16 A2996 RMK AO2 SLP136 T02060156

HOME

Condor Squadron KVNY Webcam

Visit our Electronics Store